Time;durP1;ratioP1;P1;durP2;ratioP2;P2;SDS_P1;SDS_P2;PMS_P1;PMS_P2;Temp;Humidity;BMP_temperature;BMP_pressure;BME280_temperature;BME280_humidity;BME280_pressure;Samples;Min_cycle;Max_cycle;Signal;HPM_P1;HPM_P2
2020/12/13 00:00:29;;;;;;;6.35;5.75;;;;;;;;;;5118416;28;20036;-57
2020/12/13 00:03:08;;;;;;;8.50;6.63;;;;;;;;;;5117980;28;20024;-57
2020/12/13 00:05:43;;;;;;;6.65;5.75;;;;;;;;;;5074808;28;20103;-56
2020/12/13 00:08:29;;;;;;;5.68;5.10;;;;;;;;;;5075096;28;20048;-56
2020/12/13 00:13:52;;;;;;;7.57;6.18;;;;;;;;;;5034397;28;20072;-57
2020/12/13 00:16:30;;;;;;;6.38;5.43;;;;;;;;;;5018622;28;20037;-55
2020/12/13 00:19:16;;;;;;;7.10;6.38;;;;;;;;;;5045384;28;20489;-58
2020/12/13 00:24:52;;;;;;;8.02;5.80;;;;;;;;;;5074384;28;20115;-57
2020/12/13 00:27:24;;;;;;;6.38;5.45;;;;;;;;;;5074280;28;20036;-57
2020/12/13 00:29:59;;;;;;;5.18;4.68;;;;;;;;;;5053750;28;20141;-58
2020/12/13 00:32:35;;;;;;;6.35;5.05;;;;;;;;;;5071929;28;20075;-57
2020/12/13 00:35:20;;;;;;;6.32;5.72;;;;;;;;;;5074258;28;20021;-57
2020/12/13 00:37:59;;;;;;;5.70;5.13;;;;;;;;;;5108055;28;20130;-57
2020/12/13 00:40:38;;;;;;;5.57;5.07;;;;;;;;;;5117564;28;20023;-58
2020/12/13 00:43:40;;;;;;;5.75;5.15;;;;;;;;;;5115298;28;20031;-57
2020/12/13 00:46:33;;;;;;;6.72;5.75;;;;;;;;;;5096493;28;20040;-56
2020/12/13 00:49:17;;;;;;;6.57;5.32;;;;;;;;;;5117060;28;20054;-56
2020/12/13 00:52:15;;;;;;;6.28;5.50;;;;;;;;;;5116372;28;20438;-56
2020/12/13 00:54:44;;;;;;;6.22;5.63;;;;;;;;;;5053620;28;20119;-58
2020/12/13 00:57:33;;;;;;;6.68;5.78;;;;;;;;;;5053398;28;20387;-57
2020/12/13 01:00:16;;;;;;;6.75;5.07;;;;;;;;;;5051192;28;20044;-57
2020/12/13 01:02:56;;;;;;;6.22;5.63;;;;;;;;;;5055533;28;20033;-57
2020/12/13 01:05:29;;;;;;;5.78;5.18;;;;;;;;;;5055843;28;20045;-57
2020/12/13 01:17:16;;;;;;;6.20;4.28;;;;;;;;;;5033382;28;20030;-54
2020/12/13 01:28:29;;;;;;;7.13;5.20;;;;;;;;;;5099325;28;20028;-58
2020/12/13 01:31:08;;;;;;;5.30;4.65;;;;;;;;;;5114030;28;20114;-57
2020/12/13 01:33:54;;;;;;;7.70;4.95;;;;;;;;;;5097268;28;20096;-57
2020/12/13 01:36:32;;;;;;;4.90;3.92;;;;;;;;;;5100029;28;20027;-58
2020/12/13 01:39:17;;;;;;;5.90;4.78;;;;;;;;;;5115708;28;20484;-57
2020/12/13 01:41:45;;;;;;;8.85;5.45;;;;;;;;;;5085463;28;20031;-57
2020/12/13 01:44:21;;;;;;;6.90;4.53;;;;;;;;;;5115597;28;20405;-58
2020/12/13 01:47:25;;;;;;;6.03;4.00;;;;;;;;;;5109139;28;20464;-58
2020/12/13 01:50:15;;;;;;;5.72;4.05;;;;;;;;;;5096634;28;20334;-57
2020/12/13 01:52:51;;;;;;;5.07;3.27;;;;;;;;;;5083273;28;20079;-57
2020/12/13 01:55:22;;;;;;;4.45;3.55;;;;;;;;;;5072323;28;20032;-55
2020/12/13 01:58:00;;;;;;;3.95;3.38;;;;;;;;;;5093150;28;20044;-56
2020/12/13 02:03:33;;;;;;;4.82;3.90;;;;;;;;;;5093185;28;20362;-56
2020/12/13 02:06:17;;;;;;;4.97;4.00;;;;;;;;;;5092667;28;20036;-56
2020/12/13 02:09:11;;;;;;;4.38;3.95;;;;;;;;;;5092663;28;20039;-58
2020/12/13 02:11:51;;;;;;;4.25;3.55;;;;;;;;;;5083584;28;20127;-56
2020/12/13 02:14:28;;;;;;;5.28;3.22;;;;;;;;;;5093015;28;20024;-54
2020/12/13 02:17:03;;;;;;;4.20;3.50;;;;;;;;;;5092213;28;20067;-58
2020/12/13 02:25:22;;;;;;;7.82;4.22;;;;;;;;;;5109853;28;20376;-57
2020/12/13 02:28:00;;;;;;;3.17;2.58;;;;;;;;;;5113137;28;20035;-58
2020/12/13 02:30:45;;;;;;;4.78;4.20;;;;;;;;;;5114868;28;20024;-58
2020/12/13 02:33:41;;;;;;;5.45;3.95;;;;;;;;;;5109846;28;20151;-56
2020/12/13 02:36:23;;;;;;;4.00;3.30;;;;;;;;;;5113414;28;20065;-56
2020/12/13 02:38:58;;;;;;;4.00;3.50;;;;;;;;;;5096429;28;20063;-58
2020/12/13 02:41:38;;;;;;;4.22;3.47;;;;;;;;;;5090525;28;20035;-58
2020/12/13 02:44:30;;;;;;;3.85;3.33;;;;;;;;;;5096987;28;20103;-58
2020/12/13 02:47:25;;;;;;;4.00;3.22;;;;;;;;;;5114626;28;20023;-57
2020/12/13 02:50:03;;;;;;;4.93;3.20;;;;;;;;;;5101201;28;20104;-57
2020/12/13 02:52:31;;;;;;;6.63;4.68;;;;;;;;;;5095697;28;20071;-58
2020/12/13 02:55:08;;;;;;;6.43;4.18;;;;;;;;;;5091692;28;20028;-58
2020/12/13 02:57:52;;;;;;;6.20;4.93;;;;;;;;;;5092213;28;20382;-58
2020/12/13 03:00:46;;;;;;;5.95;5.35;;;;;;;;;;5091793;28;20580;-55
2020/12/13 03:03:19;;;;;;;5.20;4.30;;;;;;;;;;5091317;28;20127;-57
2020/12/13 03:06:11;;;;;;;5.78;3.92;;;;;;;;;;5091554;28;20462;-56
2020/12/13 03:08:48;;;;;;;6.25;3.70;;;;;;;;;;5083740;28;20062;-57
2020/12/13 03:11:55;;;;;;;5.82;3.88;;;;;;;;;;5091868;28;20124;-56
2020/12/13 03:14:48;;;;;;;4.10;3.15;;;;;;;;;;5071556;28;20032;-58
2020/12/13 03:17:28;;;;;;;3.75;3.25;;;;;;;;;;5091608;28;20028;-56
2020/12/13 03:20:13;;;;;;;3.67;3.10;;;;;;;;;;5092069;28;20165;-57
2020/12/13 03:22:55;;;;;;;4.07;3.20;;;;;;;;;;5092132;28;20112;-56
2020/12/13 03:25:34;;;;;;;;;;;;;;;;;;;;;
2020/12/13 03:28:25;;;;;;;4.50;3.58;;;;;;;;;;5089354;28;20489;-56
2020/12/13 03:31:13;;;;;;;6.78;4.78;;;;;;;;;;5117694;28;20034;-56
2020/12/13 03:34:03;;;;;;;4.80;4.30;;;;;;;;;;5117535;28;20069;-58
2020/12/13 03:40:03;;;;;;;4.60;4.10;;;;;;;;;;5117916;28;20089;-57
2020/12/13 03:42:59;;;;;;;6.35;4.07;;;;;;;;;;5118430;28;20024;-57
2020/12/13 03:45:36;;;;;;;4.68;3.60;;;;;;;;;;5115233;27;20063;-57
2020/12/13 03:48:36;;;;;;;3.83;3.50;;;;;;;;;;5118281;28;20028;-55
2020/12/13 03:51:11;;;;;;;4.75;4.00;;;;;;;;;;5117767;28;20031;-58
2020/12/13 03:54:10;;;;;;;6.63;5.18;;;;;;;;;;5115636;28;20047;-57
2020/12/13 04:00:06;;;;;;;4.88;4.38;;;;;;;;;;5074437;28;20032;-57
2020/12/13 04:02:35;;;;;;;4.88;4.30;;;;;;;;;;5114279;28;20036;-56
2020/12/13 04:05:12;;;;;;;5.70;4.00;;;;;;;;;;5115744;28;20032;-57
2020/12/13 04:07:56;;;;;;;4.18;3.65;;;;;;;;;;5118082;28;20035;-58
2020/12/13 04:10:46;;;;;;;5.32;4.25;;;;;;;;;;5117393;28;20414;-58
2020/12/13 04:19:19;;;;;;;4.45;4.05;;;;;;;;;;5107380;28;20023;-58
2020/12/13 04:22:09;;;;;;;4.80;3.88;;;;;;;;;;5117393;28;20038;-56
2020/12/13 04:27:49;;;;;;;4.25;3.72;;;;;;;;;;5116616;28;20408;-56
2020/12/13 04:30:26;;;;;;;4.28;3.17;;;;;;;;;;5116638;28;20027;-56
2020/12/13 04:33:38;;;;;;;5.05;4.03;;;;;;;;;;5117357;27;20054;-56
2020/12/13 04:35:57;;;;;;;5.55;4.00;;;;;;;;;;5110968;28;20101;-55
2020/12/13 04:38:39;;;;;;;5.35;4.43;;;;;;;;;;5115993;28;20036;-54
2020/12/13 04:41:17;;;;;;;4.85;3.83;;;;;;;;;;5117051;28;20069;-56
2020/12/13 04:44:03;;;;;;;5.30;3.78;;;;;;;;;;5116813;28;20024;-56
2020/12/13 04:46:43;;;;;;;4.78;3.75;;;;;;;;;;5116151;28;20385;-53
2020/12/13 04:49:18;;;;;;;4.80;4.30;;;;;;;;;;5098075;28;20550;-55
2020/12/13 04:55:02;;;;;;;4.60;3.55;;;;;;;;;;5116779;28;20393;-56
2020/12/13 04:57:57;;;;;;;5.15;3.95;;;;;;;;;;5116990;28;20429;-54
2020/12/13 05:06:16;;;;;;;7.47;4.15;;;;;;;;;;5073370;28;20029;-56
2020/12/13 05:09:15;;;;;;;5.15;4.13;;;;;;;;;;5112919;28;20039;-56
2020/12/13 05:12:08;;;;;;;4.75;3.70;;;;;;;;;;5116696;28;20020;-53
2020/12/13 05:15:11;;;;;;;4.80;3.80;;;;;;;;;;5115555;27;20031;-55
2020/12/13 05:18:00;;;;;;;4.50;4.05;;;;;;;;;;5117116;28;20020;-55
2020/12/13 05:20:57;;;;;;;4.70;3.85;;;;;;;;;;5104923;28;20058;-56
2020/12/13 05:23:48;;;;;;;4.60;4.13;;;;;;;;;;5116099;28;20044;-55
2020/12/13 05:26:52;;;;;;;5.22;4.45;;;;;;;;;;5108637;28;20027;-56
2020/12/13 05:29:43;;;;;;;6.82;4.65;;;;;;;;;;5092930;28;20431;-56
2020/12/13 05:32:52;;;;;;;6.70;4.78;;;;;;;;;;5093962;28;20024;-56
2020/12/13 05:35:36;;;;;;;4.97;4.22;;;;;;;;;;5093431;28;20028;-56
2020/12/13 05:41:25;;;;;;;7.90;4.63;;;;;;;;;;5063692;28;20031;-55
2020/12/13 05:52:31;;;;;;;3.35;2.85;;;;;;;;;;5115385;28;20051;-56
2020/12/13 05:55:15;;;;;;;4.78;3.80;;;;;;;;;;5115848;28;20028;-56
2020/12/13 05:57:48;;;;;;;3.42;3.00;;;;;;;;;;5098933;28;20027;-55
2020/12/13 06:01:18;;;;;;;3.13;2.65;;;;;;;;;;5116180;28;20028;-55
2020/12/13 06:03:51;;;;;;;3.63;3.00;;;;;;;;;;5070534;28;20025;-56
2020/12/13 06:06:38;;;;;;;3.92;3.13;;;;;;;;;;5072497;28;20517;-54
2020/12/13 06:09:23;;;;;;;;;;;;;;;;;;;;;
2020/12/13 06:12:11;;;;;;;4.55;3.72;;;;;;;;;;5072358;28;20020;-56
2020/12/13 06:15:02;;;;;;;;;;;;;;;;;;;;;
2020/12/13 06:17:36;;;;;;;4.38;3.53;;;;;;;;;;5055637;28;20147;-52
2020/12/13 06:20:23;;;;;;;4.50;3.38;;;;;;;;;;5055640;28;20029;-54
2020/12/13 06:22:56;;;;;;;6.47;3.55;;;;;;;;;;5113171;28;20185;-53
2020/12/13 06:25:46;;;;;;;4.30;3.63;;;;;;;;;;5114907;28;20027;-53
2020/12/13 06:28:31;;;;;;;4.00;2.92;;;;;;;;;;5114219;28;20337;-52
2020/12/13 06:31:14;;;;;;;3.38;2.53;;;;;;;;;;5097139;28;20365;-54
2020/12/13 06:36:48;;;;;;;3.70;3.30;;;;;;;;;;5099163;28;20039;-53
2020/12/13 06:39:36;;;;;;;3.47;3.03;;;;;;;;;;5095102;28;20023;-49
2020/12/13 06:42:03;;;;;;;4.93;3.55;;;;;;;;;;5113662;28;20030;-56
2020/12/13 06:45:20;;;;;;;;;;;;;;;;;;;;;
2020/12/13 06:51:16;;;;;;;3.63;2.95;;;;;;;;;;5109304;28;20031;-55
2020/12/13 06:56:38;;;;;;;5.97;3.00;;;;;;;;;;5114669;28;20046;-54
2020/12/13 06:59:27;;;;;;;4.33;3.03;;;;;;;;;;5114936;28;20028;-54
2020/12/13 07:02:11;;;;;;;2.40;1.92;;;;;;;;;;5080544;28;20266;-51
2020/12/13 07:05:05;;;;;;;;;;;;;;;;;;;;;
2020/12/13 07:07:38;;;;;;;3.97;2.95;;;;;;;;;;5118417;28;20035;-56
2020/12/13 07:10:11;;;;;;;3.85;3.00;;;;;;;;;;5118169;27;20043;-54
2020/12/13 07:13:09;;;;;;;5.45;2.72;;;;;;;;;;5118532;28;20110;-56
2020/12/13 07:15:45;;;;;;;3.05;2.47;;;;;;;;;;5117927;28;20079;-55
2020/12/13 07:18:24;;;;;;;3.35;2.20;;;;;;;;;;5118637;28;20027;-56
2020/12/13 07:21:18;;;;;;;3.15;2.38;;;;;;;;;;5118770;28;20024;-55
2020/12/13 07:24:04;;;;;;;2.83;1.85;;;;;;;;;;5096555;28;20488;-54
2020/12/13 07:26:39;;;;;;;3.88;2.45;;;;;;;;;;5118168;28;20089;-54
2020/12/13 07:29:15;;;;;;;2.78;2.00;;;;;;;;;;5118041;28;20028;-56
2020/12/13 07:31:56;;;;;;;2.90;2.05;;;;;;;;;;5116635;28;20032;-55
2020/12/13 07:34:31;;;;;;;3.10;2.35;;;;;;;;;;5118125;28;20056;-55
2020/12/13 07:37:19;;;;;;;3.63;2.20;;;;;;;;;;5118813;28;20469;-56
2020/12/13 07:46:12;;;;;;;2.55;1.60;;;;;;;;;;5112034;27;20492;-53
2020/12/13 07:51:36;;;;;;;3.17;1.80;;;;;;;;;;5117966;28;20059;-56
2020/12/13 07:54:40;;;;;;;2.58;1.60;;;;;;;;;;5118480;28;20047;-56
2020/12/13 07:57:41;;;;;;;3.15;1.85;;;;;;;;;;5117856;28;20077;-56
2020/12/13 08:00:09;;;;;;;;;;;;;;;;;;5106065;28;20073;-56
2020/12/13 08:02:56;;;;;;;4.00;1.40;;;;;;;;;;5098706;28;19926;-56
2020/12/13 08:05:44;;;;;;;2.22;1.40;;;;;;;;;;5116824;28;20404;-58
2020/12/13 08:08:41;;;;;;;3.60;1.92;;;;;;;;;;5099078;28;20043;-57
2020/12/13 08:11:39;;;;;;;2.35;1.45;;;;;;;;;;5116655;28;20119;-58
2020/12/13 08:14:26;;;;;;;3.22;1.90;;;;;;;;;;5107692;28;20036;-56
2020/12/13 08:17:18;;;;;;;2.40;1.48;;;;;;;;;;5115840;28;20046;-59
2020/12/13 08:20:19;;;;;;;3.00;1.98;;;;;;;;;;5115680;28;20026;-57
2020/12/13 08:22:54;;;;;;;;;;;;;;;;;;5110141;28;20589;-57
2020/12/13 08:25:40;;;;;;;;;;;;;;;;;;;;;
2020/12/13 08:34:29;;;;;;;4.40;2.42;;;;;;;;;;5117439;28;20031;-57
2020/12/13 08:37:30;;;;;;;;;;;;;;;;;;;;;
2020/12/13 08:43:39;;;;;;;2.65;2.05;;;;;;;;;;5114418;28;20027;-57
2020/12/13 08:46:32;;;;;;;3.50;2.83;;;;;;;;;;5115706;28;20476;-56
2020/12/13 08:49:24;;;;;;;2.53;2.13;;;;;;;;;;5116096;28;20036;-57
2020/12/13 08:55:10;;;;;;;2.92;2.33;;;;;;;;;;5081156;28;20052;-56
2020/12/13 08:57:45;;;;;;;4.70;2.85;;;;;;;;;;5115972;28;20031;-55
2020/12/13 09:00:49;;;;;;;;;;;;;;;;;;;;;
2020/12/13 09:03:40;;;;;;;3.50;2.47;;;;;;;;;;5116412;28;20023;-55
2020/12/13 09:06:18;;;;;;;3.45;3.03;;;;;;;;;;5097360;28;20020;-55
2020/12/13 09:08:56;;;;;;;3.85;3.05;;;;;;;;;;5115385;28;20480;-57
2020/12/13 09:14:49;;;;;;;3.88;3.15;;;;;;;;;;5065480;28;20037;-56
2020/12/13 09:17:27;;;;;;;4.45;3.40;;;;;;;;;;5074002;28;20048;-57
2020/12/13 09:19:59;;;;;;;5.05;3.58;;;;;;;;;;5114167;28;20039;-57
2020/12/13 09:22:41;;;;;;;3.35;2.95;;;;;;;;;;5115800;28;20414;-56
2020/12/13 09:25:32;;;;;;;;;;;;;;;;;;;;;
2020/12/13 09:28:01;;;;;;;;;;;;;;;;;;5115931;28;20035;-57
2020/12/13 09:30:30;;;;;;;4.10;3.45;;;;;;;;;;5072336;28;19944;-57
2020/12/13 09:33:31;;;;;;;4.40;3.20;;;;;;;;;;5072584;28;20082;-57
2020/12/13 09:36:03;;;;;;;6.55;4.45;;;;;;;;;;5072601;28;20082;-57
2020/12/13 09:38:42;;;;;;;7.80;4.40;;;;;;;;;;5072671;28;20515;-57
2020/12/13 09:44:47;;;;;;;4.57;3.83;;;;;;;;;;5054442;28;20029;-57
2020/12/13 09:47:41;;;;;;;3.55;2.90;;;;;;;;;;5072914;28;20521;-57
2020/12/13 09:50:23;;;;;;;;;;;;;;;;;;;;;
2020/12/13 09:53:12;;;;;;;;;;;;;;;;;;;;;
2020/12/13 09:56:02;;;;;;;4.28;3.30;;;;;;;;;;5069227;28;20043;-58
2020/12/13 09:58:41;;;;;;;;;;;;;;;;;;;;;
2020/12/13 10:01:11;;;;;;;7.03;3.80;;;;;;;;;;5084462;28;20441;-58
2020/12/13 10:10:05;;;;;;;;;;;;;;;;;;;;;
2020/12/13 10:12:46;;;;;;;5.47;3.53;;;;;;;;;;5077859;28;20341;-58
2020/12/13 10:15:14;;;;;;;3.38;2.83;;;;;;;;;;5113818;28;20028;-58
2020/12/13 10:21:05;;;;;;;4.30;2.80;;;;;;;;;;5094329;28;20565;-58
2020/12/13 10:26:47;;;;;;;5.00;2.92;;;;;;;;;;5114568;28;20088;-57
2020/12/13 10:29:31;;;;;;;5.05;3.08;;;;;;;;;;5115487;28;20071;-57
2020/12/13 10:31:57;;;;;;;3.53;2.45;;;;;;;;;;5114404;28;20367;-58
2020/12/13 10:34:30;;;;;;;2.17;1.45;;;;;;;;;;5113224;28;20062;-57
2020/12/13 10:36:56;;;;;;;3.10;1.52;;;;;;;;;;5090015;28;20035;-58
2020/12/13 10:42:21;;;;;;;2.50;1.67;;;;;;;;;;5097433;28;20034;-57
2020/12/13 10:45:04;;;;;;;2.38;1.77;;;;;;;;;;5114381;28;20493;-54
2020/12/13 10:47:39;;;;;;;1.70;0.95;;;;;;;;;;5114577;28;20036;-56
2020/12/13 10:50:08;;;;;;;2.47;1.30;;;;;;;;;;5113484;28;20174;-57
2020/12/13 10:53:17;;;;;;;2.05;0.90;;;;;;;;;;5090983;28;20481;-56
2020/12/13 10:56:02;;;;;;;1.17;0.65;;;;;;;;;;5093220;28;20526;-56
2020/12/13 10:58:39;;;;;;;2.75;1.35;;;;;;;;;;5094352;28;20032;-56
2020/12/13 11:01:14;;;;;;;1.45;0.75;;;;;;;;;;5094380;28;20032;-58
2020/12/13 11:03:44;;;;;;;2.25;1.02;;;;;;;;;;5093734;28;20077;-57
2020/12/13 11:06:36;;;;;;;2.15;0.98;;;;;;;;;;5093517;28;20479;-58
2020/12/13 11:12:25;;;;;;;3.30;0.80;;;;;;;;;;5070804;28;20029;-57
2020/12/13 11:15:24;;;;;;;0.98;0.60;;;;;;;;;;5071438;28;20042;-57
2020/12/13 11:17:57;;;;;;;1.13;0.60;;;;;;;;;;5054331;28;20494;-57
2020/12/13 11:20:28;;;;;;;1.33;0.70;;;;;;;;;;5071245;28;20398;-57
2020/12/13 11:22:57;;;;;;;2.95;1.17;;;;;;;;;;5070869;28;20029;-55
2020/12/13 11:25:45;;;;;;;1.90;0.93;;;;;;;;;;5071443;28;20461;-57
2020/12/13 11:28:35;;;;;;;1.55;0.73;;;;;;;;;;5071065;28;20028;-56
2020/12/13 11:31:09;;;;;;;1.90;0.95;;;;;;;;;;5087436;28;20032;-56
2020/12/13 11:33:59;;;;;;;2.55;1.40;;;;;;;;;;5076349;28;20107;-56
2020/12/13 11:39:46;;;;;;;1.17;0.70;;;;;;;;;;5092172;28;20085;-58
2020/12/13 11:42:15;;;;;;;1.60;0.57;;;;;;;;;;5093162;28;20489;-56
2020/12/13 11:45:00;;;;;;;1.83;0.95;;;;;;;;;;5094290;28;20537;-56
2020/12/13 11:47:28;;;;;;;0.80;0.43;;;;;;;;;;5093825;28;20058;-58
2020/12/13 11:50:06;;;;;;;1.42;0.85;;;;;;;;;;5094334;28;20024;-56
2020/12/13 11:52:52;;;;;;;1.70;0.98;;;;;;;;;;5095918;28;20036;-55
2020/12/13 11:55:41;;;;;;;;;;;;;;;;;;;;;
2020/12/13 11:58:16;;;;;;;2.88;1.10;;;;;;;;;;5095944;28;20051;-58
2020/12/13 12:01:08;;;;;;;1.95;0.60;;;;;;;;;;5096921;28;20032;-57
2020/12/13 12:03:58;;;;;;;2.80;1.08;;;;;;;;;;5068256;28;20122;-57
2020/12/13 12:12:35;;;;;;;2.30;1.30;;;;;;;;;;5095780;28;20028;-58
2020/12/13 12:15:10;;;;;;;2.45;1.00;;;;;;;;;;5096889;28;20376;-58
2020/12/13 12:17:42;;;;;;;2.33;0.90;;;;;;;;;;5095036;28;20044;-57
2020/12/13 12:20:27;;;;;;;1.77;1.15;;;;;;;;;;5096783;28;20250;-55
2020/12/13 12:22:59;;;;;;;1.90;0.70;;;;;;;;;;5096673;28;20533;-57
2020/12/13 12:25:45;;;;;;;1.60;0.77;;;;;;;;;;5097016;28;20086;-55
2020/12/13 12:28:23;;;;;;;1.85;1.00;;;;;;;;;;5085826;28;20421;-56
2020/12/13 12:30:58;;;;;;;1.58;0.65;;;;;;;;;;5095351;28;20119;-57
2020/12/13 12:33:35;;;;;;;2.83;1.20;;;;;;;;;;5096532;28;20020;-57
2020/12/13 12:36:07;;;;;;;2.20;1.05;;;;;;;;;;5096422;28;20085;-57
2020/12/13 12:38:36;;;;;;;2.30;1.02;;;;;;;;;;5094180;28;20039;-58
2020/12/13 12:41:14;;;;;;;2.03;0.73;;;;;;;;;;5095718;28;20070;-57
2020/12/13 12:43:43;;;;;;;2.85;1.17;;;;;;;;;;5095472;28;20028;-55
2020/12/13 12:46:30;;;;;;;2.22;1.05;;;;;;;;;;5095933;28;20035;-59
2020/12/13 12:49:08;;;;;;;1.20;0.75;;;;;;;;;;5096671;28;20042;-59
2020/12/13 12:51:39;;;;;;;1.48;0.88;;;;;;;;;;5095208;28;20040;-58
2020/12/13 12:54:17;;;;;;;;;;;;;;;;;;5093587;28;20131;-58
2020/12/13 12:57:21;;;;;;;1.02;0.52;;;;;;;;;;5096842;28;19904;-59
2020/12/13 13:02:37;;;;;;;1.95;0.80;;;;;;;;;;5095970;28;20117;-59
2020/12/13 13:05:36;;;;;;;2.03;0.97;;;;;;;;;;5096136;28;20032;-59
2020/12/13 13:14:53;;;;;;;;;;;;;;;;;;;;;
2020/12/13 13:17:41;;;;;;;2.45;0.80;;;;;;;;;;5091659;28;20043;-58
2020/12/13 13:20:12;;;;;;;3.78;0.98;;;;;;;;;;5094093;28;20075;-58
2020/12/13 13:22:57;;;;;;;3.15;1.05;;;;;;;;;;5095239;28;20024;-58
2020/12/13 13:28:30;;;;;;;3.80;1.90;;;;;;;;;;5093442;28;20036;-58
2020/12/13 13:31:14;;;;;;;2.42;1.15;;;;;;;;;;5095492;28;20334;-58
2020/12/13 13:33:59;;;;;;;1.67;0.95;;;;;;;;;;5094747;28;20016;-58
2020/12/13 13:37:02;;;;;;;1.85;0.95;;;;;;;;;;5095963;28;20024;-58
2020/12/13 13:39:44;;;;;;;2.70;1.52;;;;;;;;;;5095087;28;20020;-58
2020/12/13 13:42:20;;;;;;;0.75;0.47;;;;;;;;;;5094909;28;20035;-58
2020/12/13 13:50:47;;;;;;;2.08;1.30;;;;;;;;;;5094991;28;20100;-57
2020/12/13 13:53:37;;;;;;;1.55;0.80;;;;;;;;;;5094345;28;20044;-58
2020/12/13 13:59:24;;;;;;;1.83;0.85;;;;;;;;;;5093062;28;20063;-58
2020/12/13 14:10:17;;;;;;;3.15;1.58;;;;;;;;;;5094833;28;20035;-59
2020/12/13 14:13:01;;;;;;;1.25;0.88;;;;;;;;;;5094534;28;20021;-59
2020/12/13 14:15:39;;;;;;;4.15;1.55;;;;;;;;;;5091605;28;20032;-60
2020/12/13 14:18:17;;;;;;;4.30;0.93;;;;;;;;;;5093927;28;20438;-58
2020/12/13 14:20:59;;;;;;;1.73;0.93;;;;;;;;;;5094964;28;20024;-59
2020/12/13 14:23:34;;;;;;;2.65;1.55;;;;;;;;;;5093321;28;20077;-58
2020/12/13 14:26:24;;;;;;;3.08;1.75;;;;;;;;;;5078028;28;20093;-59
2020/12/13 14:29:21;;;;;;;5.00;1.35;;;;;;;;;;5094402;28;20423;-58
2020/12/13 14:35:16;;;;;;;1.17;0.77;;;;;;;;;;5094437;28;20028;-59
2020/12/13 14:37:56;;;;;;;;;;;;;;;;;;;;;
2020/12/13 14:40:43;;;;;;;1.83;1.13;;;;;;;;;;5055965;28;20042;-58
2020/12/13 14:43:43;;;;;;;;;;;;;;;;;;;;;
2020/12/13 14:46:21;;;;;;;3.30;1.33;;;;;;;;;;5094754;28;20038;-59
2020/12/13 14:48:53;;;;;;;2.95;2.25;;;;;;;;;;5094182;28;20036;-58
2020/12/13 14:51:37;;;;;;;3.85;2.88;;;;;;;;;;5076459;28;20032;-58
2020/12/13 14:54:29;;;;;;;2.90;1.95;;;;;;;;;;5090173;28;20058;-56
2020/12/13 15:00:08;;;;;;;4.60;2.17;;;;;;;;;;5055558;28;20032;-59
2020/12/13 15:02:37;;;;;;;4.78;1.77;;;;;;;;;;5093048;28;20024;-58
2020/12/13 15:05:15;;;;;;;4.35;2.13;;;;;;;;;;5094106;28;20465;-58
2020/12/13 15:08:05;;;;;;;2.10;1.30;;;;;;;;;;5057773;28;20040;-59
2020/12/13 15:17:08;;;;;;;2.03;1.50;;;;;;;;;;5079901;28;20024;-58
2020/12/13 15:19:40;;;;;;;3.13;1.80;;;;;;;;;;5093288;28;20042;-58
2020/12/13 15:22:25;;;;;;;;;;;;;;;;;;;;;
2020/12/13 15:25:10;;;;;;;6.05;2.53;;;;;;;;;;5096910;28;20024;-58
2020/12/13 15:31:08;;;;;;;6.25;4.50;;;;;;;;;;5097504;28;20408;-59
2020/12/13 15:33:40;;;;;;;4.07;3.40;;;;;;;;;;5061986;28;20044;-57
2020/12/13 15:36:22;;;;;;;4.97;4.38;;;;;;;;;;5097452;28;20030;-57
2020/12/13 15:39:10;;;;;;;4.97;3.70;;;;;;;;;;5096575;28;20122;-57
2020/12/13 15:42:08;;;;;;;6.95;4.22;;;;;;;;;;5079304;28;20377;-57
2020/12/13 15:44:47;;;;;;;;;;;;;;;;;;;;;
2020/12/13 15:47:18;;;;;;;4.07;3.10;;;;;;;;;;5085327;28;20044;-58
2020/12/13 15:49:55;;;;;;;4.47;4.05;;;;;;;;;;5097592;28;20102;-57
2020/12/13 15:52:33;;;;;;;5.78;4.30;;;;;;;;;;5097075;28;20046;-57
2020/12/13 15:55:08;;;;;;;5.50;4.85;;;;;;;;;;5097251;28;20206;-57
2020/12/13 15:57:47;;;;;;;4.18;2.97;;;;;;;;;;5056829;28;20118;-57
2020/12/13 16:00:34;;;;;;;4.60;4.13;;;;;;;;;;5097783;28;20032;-57
2020/12/13 16:03:21;;;;;;;3.75;3.33;;;;;;;;;;5097571;28;20338;-57
2020/12/13 16:06:07;;;;;;;3.75;3.22;;;;;;;;;;5077283;28;20378;-57
2020/12/13 16:08:55;;;;;;;;;;;;;;;;;;;;;
2020/12/13 16:11:24;;;;;;;5.35;4.85;;;;;;;;;;5097062;28;20032;-56
2020/12/13 16:13:56;;;;;;;4.93;4.43;;;;;;;;;;5096811;28;20027;-57
2020/12/13 16:16:28;;;;;;;4.55;3.90;;;;;;;;;;5097440;28;20020;-56
2020/12/13 16:19:15;;;;;;;5.20;3.92;;;;;;;;;;5087653;28;20044;-57
2020/12/13 16:22:01;;;;;;;3.50;2.42;;;;;;;;;;5078245;28;20431;-56
2020/12/13 16:24:43;;;;;;;2.80;2.08;;;;;;;;;;5074160;28;20410;-58
2020/12/13 16:27:53;;;;;;;3.55;2.70;;;;;;;;;;5096491;28;20032;-58
2020/12/13 16:31:14;;;;;;;;;;;;;;;;;;;;;
2020/12/13 16:33:32;;;;;;;5.20;3.90;;;;;;;;;;5091585;28;20035;-55
2020/12/13 16:36:23;;;;;;;4.70;3.85;;;;;;;;;;5096277;28;20519;-57
2020/12/13 16:38:59;;;;;;;5.18;3.70;;;;;;;;;;5094816;28;20035;-57
2020/12/13 16:41:38;;;;;;;;;;;;;;;;;;;;;
2020/12/13 16:44:26;;;;;;;;;;;;;;;;;;;;;
2020/12/13 16:47:00;;;;;;;3.88;3.28;;;;;;;;;;5096056;28;20058;-57
2020/12/13 16:58:51;;;;;;;5.13;4.63;;;;;;;;;;5095768;28;20170;-56
2020/12/13 17:01:38;;;;;;;6.43;3.88;;;;;;;;;;5060245;28;20060;-58
2020/12/13 17:04:18;;;;;;;5.82;4.88;;;;;;;;;;5077750;28;20024;-58
2020/12/13 17:07:12;;;;;;;4.78;3.90;;;;;;;;;;5096578;28;20331;-58
2020/12/13 17:10:17;;;;;;;3.75;2.47;;;;;;;;;;5091568;28;20044;-57
2020/12/13 17:13:17;;;;;;;9.15;3.60;;;;;;;;;;5096011;28;20024;-58
2020/12/13 17:16:16;;;;;;;5.07;4.57;;;;;;;;;;5094788;28;20062;-57
2020/12/13 17:18:52;;;;;;;6.80;5.43;;;;;;;;;;5095850;28;20097;-58
2020/12/13 17:21:29;;;;;;;5.80;4.72;;;;;;;;;;5059885;28;20028;-58
2020/12/13 17:24:08;;;;;;;;;;;;;;;;;;;;;
2020/12/13 17:26:44;;;;;;;5.30;4.80;;;;;;;;;;5095162;28;20499;-57
2020/12/13 17:32:12;;;;;;;5.15;3.78;;;;;;;;;;5095209;28;20436;-57
2020/12/13 17:34:51;;;;;;;6.63;2.63;;;;;;;;;;5077541;28;20040;-58
2020/12/13 17:37:35;;;;;;;3.35;2.60;;;;;;;;;;5095378;28;20103;-57
2020/12/13 17:40:15;;;;;;;5.60;2.78;;;;;;;;;;5094916;28;20377;-58
2020/12/13 17:42:49;;;;;;;5.47;2.80;;;;;;;;;;5094348;28;20107;-58
2020/12/13 17:48:16;;;;;;;3.78;2.45;;;;;;;;;;5084823;28;20067;-58
2020/12/13 17:53:55;;;;;;;3.72;2.55;;;;;;;;;;5093952;28;20043;-58
2020/12/13 17:56:41;;;;;;;4.22;2.47;;;;;;;;;;5093453;28;20059;-58
2020/12/13 17:59:42;;;;;;;3.78;2.90;;;;;;;;;;5092882;28;20036;-57
2020/12/13 18:02:14;;;;;;;4.40;3.30;;;;;;;;;;5093098;28;20032;-58
2020/12/13 18:05:09;;;;;;;3.42;2.92;;;;;;;;;;5094283;28;20043;-58
2020/12/13 18:07:56;;;;;;;;;;;;;;;;;;;;;
2020/12/13 18:10:38;;;;;;;3.40;3.05;;;;;;;;;;5093795;28;20024;-58
2020/12/13 18:13:04;;;;;;;3.30;3.00;;;;;;;;;;5093367;28;20016;-58
2020/12/13 18:15:43;;;;;;;4.70;3.65;;;;;;;;;;5076216;28;20058;-58
2020/12/13 18:18:12;;;;;;;4.95;3.72;;;;;;;;;;5075429;28;20044;-58
2020/12/13 18:23:50;;;;;;;7.45;4.15;;;;;;;;;;5083647;28;20086;-58
2020/12/13 18:26:28;;;;;;;5.20;3.42;;;;;;;;;;5084389;28;20536;-58
2020/12/13 18:32:04;;;;;;;5.35;4.65;;;;;;;;;;5089643;28;20089;-59
2020/12/13 18:34:39;;;;;;;8.30;4.20;;;;;;;;;;5094796;28;20422;-59
2020/12/13 18:37:12;;;;;;;4.80;4.00;;;;;;;;;;5092756;28;20028;-57
2020/12/13 18:39:53;;;;;;;7.65;5.07;;;;;;;;;;5094097;28;20038;-57
2020/12/13 18:42:23;;;;;;;4.57;3.97;;;;;;;;;;5076277;28;20040;-57
2020/12/13 18:45:18;;;;;;;6.40;4.97;;;;;;;;;;5094694;28;20066;-56
2020/12/13 18:47:47;;;;;;;4.18;3.47;;;;;;;;;;5094402;28;20036;-57
2020/12/13 18:53:20;;;;;;;6.32;4.18;;;;;;;;;;5094043;28;20535;-56
2020/12/13 18:56:13;;;;;;;5.00;4.50;;;;;;;;;;5090758;28;20134;-56
2020/12/13 18:59:06;;;;;;;4.95;4.18;;;;;;;;;;5093024;28;20055;-57
2020/12/13 19:02:05;;;;;;;7.03;4.97;;;;;;;;;;5085653;28;20024;-57
2020/12/13 19:07:51;;;;;;;10.45;9.02;;;;;;;;;;5093958;28;20043;-57
2020/12/13 19:10:34;;;;;;;6.60;5.57;;;;;;;;;;5091100;28;20028;-57
2020/12/13 19:13:33;;;;;;;8.70;6.82;;;;;;;;;;5079444;28;20105;-57
2020/12/13 19:16:27;;;;;;;7.30;6.10;;;;;;;;;;5091209;28;20107;-57
2020/12/13 19:22:01;;;;;;;6.20;4.55;;;;;;;;;;5077892;28;20028;-57
2020/12/13 19:24:44;;;;;;;5.35;4.55;;;;;;;;;;5093786;28;20032;-57
2020/12/13 19:27:10;;;;;;;5.55;4.32;;;;;;;;;;5077507;28;20118;-56
2020/12/13 19:30:10;;;;;;;;;;;;;;;;;;;;;
2020/12/13 19:32:56;;;;;;;7.43;5.18;;;;;;;;;;5085163;28;20492;-56
2020/12/13 19:38:20;;;;;;;6.50;4.30;;;;;;;;;;5094432;28;20036;-56
2020/12/13 19:41:15;;;;;;;5.17;3.93;;;;;;;;;;5093662;28;20016;-56
2020/12/13 19:44:06;;;;;;;7.63;6.13;;;;;;;;;;5093200;28;20024;-56
2020/12/13 19:47:02;;;;;;;9.30;6.77;;;;;;;;;;5094226;28;20052;-56
2020/12/13 19:49:45;;;;;;;9.75;4.60;;;;;;;;;;5040644;28;20067;-57
2020/12/13 19:52:32;;;;;;;5.63;4.17;;;;;;;;;;5093817;28;20052;-57
2020/12/13 19:55:16;;;;;;;5.07;4.27;;;;;;;;;;5090811;28;20428;-57
2020/12/13 19:57:55;;;;;;;4.40;3.22;;;;;;;;;;5093769;28;20138;-57
2020/12/13 20:00:39;;;;;;;3.90;3.45;;;;;;;;;;5091843;28;20032;-55
2020/12/13 20:06:30;;;;;;;3.77;3.40;;;;;;;;;;5092580;28;20055;-57
2020/12/13 20:09:13;;;;;;;4.43;3.13;;;;;;;;;;5091644;28;20047;-54
2020/12/13 21:05:42;;;;;;;6.80;5.60;;;;;;;;;;5075827;28;20109;-57
2020/12/13 21:19:09;;;;;;;15.97;11.67;;;;;;;;;;5060418;28;20040;-56
2020/12/13 21:22:28;;;;;;;15.73;10.63;;;;;;;;;;5075651;28;20031;-55
2020/12/13 21:51:13;;;;;;;5.25;3.85;;;;;;;;;;5074866;28;20082;-56